KJCT/JCT METAR and TAF weather

Enter ICAO airport designator
Station Type Date Time Source
KJCT METAR 2022/07/03 13:51 UTC NOAA

KJCT 031351Z AUTO 10005KT 10SM CLR 24/18 A3006 RMK AO2 SLP141 T02390183 $


Station Type Date Time Source
KJCT Decoded METAR 2022/07/03 13:51 UTC NOAA

KIMBLE COUNTY AIRPORT, TX, United States (KJCT) 30-31N 099-46W 523M
Jul 03, 2022 - 09:51 AM EDT / 2022.07.03 1351 UTC
Wind: from the E (100 degrees) at 6 MPH (5 KT):0
Visibility: 10 mile(s):0
Sky conditions: clear
Temperature: 75.0 F (23.9 C)
Dew Point: 64.9 F (18.3 C)
Relative Humidity: 70%
Pressure (altimeter): 30.06 in. Hg (1017 hPa)
ob: KJCT 031351Z AUTO 10005KT 10SM CLR 24/18 A3006 RMK AO2 SLP141 T02390183
cycle: 14

Station Type Date Time Source
KJCT TAF 2022/07/03 12:39 UTC NOAA

TAF KJCT 031136Z 0312/0412 VRB04KT P6SM BKN250
TEMPO 0312/0314 -RA
FM031800 18012G19KT P6SM BKN250

Example: see airport list